sensor_id;sensor_type;location;lat;lon;timestamp;P1;durP1;ratioP1;P2;durP2;ratioP2
14203;SDS011;7185;51.854;6.622;2023-05-16T00:00:41;7.90;;;2.50;;
14203;SDS011;7185;51.854;6.622;2023-05-16T00:03:13;11.05;;;3.28;;
14203;SDS011;7185;51.854;6.622;2023-05-16T00:05:44;10.07;;;2.70;;
14203;SDS011;7185;51.854;6.622;2023-05-16T00:08:17;7.40;;;2.60;;
14203;SDS011;7185;51.854;6.622;2023-05-16T00:10:50;8.23;;;2.80;;
14203;SDS011;7185;51.854;6.622;2023-05-16T00:13:21;8.48;;;2.30;;
14203;SDS011;7185;51.854;6.622;2023-05-16T00:15:55;12.25;;;2.53;;
14203;SDS011;7185;51.854;6.622;2023-05-16T00:18:26;10.95;;;2.67;;
14203;SDS011;7185;51.854;6.622;2023-05-16T00:20:58;10.13;;;2.72;;
14203;SDS011;7185;51.854;6.622;2023-05-16T00:23:30;9.57;;;2.80;;
14203;SDS011;7185;51.854;6.622;2023-05-16T00:26:04;13.75;;;3.58;;
14203;SDS011;7185;51.854;6.622;2023-05-16T00:28:35;11.00;;;2.40;;
14203;SDS011;7185;51.854;6.622;2023-05-16T00:31:07;9.85;;;2.30;;
14203;SDS011;7185;51.854;6.622;2023-05-16T00:33:39;13.02;;;3.20;;
14203;SDS011;7185;51.854;6.622;2023-05-16T00:36:10;11.52;;;2.78;;
14203;SDS011;7185;51.854;6.622;2023-05-16T00:38:42;13.73;;;2.70;;
14203;SDS011;7185;51.854;6.622;2023-05-16T00:41:15;9.57;;;3.33;;
14203;SDS011;7185;51.854;6.622;2023-05-16T00:43:47;8.90;;;2.78;;
14203;SDS011;7185;51.854;6.622;2023-05-16T00:46:18;17.10;;;3.63;;
14203;SDS011;7185;51.854;6.622;2023-05-16T00:48:50;18.92;;;3.40;;
14203;SDS011;7185;51.854;6.622;2023-05-16T00:51:24;14.48;;;3.03;;
14203;SDS011;7185;51.854;6.622;2023-05-16T00:53:56;12.70;;;3.20;;
14203;SDS011;7185;51.854;6.622;2023-05-16T00:56:30;17.63;;;3.40;;
14203;SDS011;7185;51.854;6.622;2023-05-16T00:59:01;12.30;;;3.25;;
14203;SDS011;7185;51.854;6.622;2023-05-16T01:01:34;17.98;;;3.85;;
14203;SDS011;7185;51.854;6.622;2023-05-16T01:04:07;13.30;;;2.70;;
14203;SDS011;7185;51.854;6.622;2023-05-16T01:06:39;20.15;;;3.72;;
14203;SDS011;7185;51.854;6.622;2023-05-16T01:09:11;15.07;;;2.95;;
14203;SDS011;7185;51.854;6.622;2023-05-16T01:11:48;11.95;;;4.07;;
14203;SDS011;7185;51.854;6.622;2023-05-16T01:14:24;16.67;;;3.30;;
14203;SDS011;7185;51.854;6.622;2023-05-16T01:17:04;16.48;;;3.55;;
14203;SDS011;7185;51.854;6.622;2023-05-16T01:19:47;18.92;;;4.53;;
14203;SDS011;7185;51.854;6.622;2023-05-16T01:22:28;18.00;;;3.65;;
14203;SDS011;7185;51.854;6.622;2023-05-16T01:25:10;19.00;;;3.78;;
14203;SDS011;7185;51.854;6.622;2023-05-16T01:27:53;19.15;;;4.10;;
14203;SDS011;7185;51.854;6.622;2023-05-16T01:30:31;17.40;;;4.13;;
14203;SDS011;7185;51.854;6.622;2023-05-16T01:33:04;16.25;;;3.40;;
14203;SDS011;7185;51.854;6.622;2023-05-16T01:35:35;16.80;;;3.92;;
14203;SDS011;7185;51.854;6.622;2023-05-16T01:38:15;15.80;;;4.10;;
14203;SDS011;7185;51.854;6.622;2023-05-16T01:40:52;14.23;;;3.83;;
14203;SDS011;7185;51.854;6.622;2023-05-16T01:43:29;14.75;;;3.20;;
14203;SDS011;7185;51.854;6.622;2023-05-16T01:46:14;15.80;;;4.43;;
14203;SDS011;7185;51.854;6.622;2023-05-16T01:48:49;12.98;;;3.40;;
14203;SDS011;7185;51.854;6.622;2023-05-16T01:51:23;13.88;;;3.63;;
14203;SDS011;7185;51.854;6.622;2023-05-16T01:54:03;15.20;;;2.85;;
14203;SDS011;7185;51.854;6.622;2023-05-16T01:56:40;17.88;;;3.85;;
14203;SDS011;7185;51.854;6.622;2023-05-16T01:59:19;15.93;;;3.35;;
14203;SDS011;7185;51.854;6.622;2023-05-16T02:01:55;19.52;;;3.53;;
14203;SDS011;7185;51.854;6.622;2023-05-16T02:04:28;20.88;;;4.47;;
14203;SDS011;7185;51.854;6.622;2023-05-16T02:07:00;21.27;;;3.60;;
14203;SDS011;7185;51.854;6.622;2023-05-16T02:09:34;20.10;;;3.08;;
14203;SDS011;7185;51.854;6.622;2023-05-16T02:12:06;19.25;;;4.28;;
14203;SDS011;7185;51.854;6.622;2023-05-16T02:14:39;16.00;;;3.17;;
14203;SDS011;7185;51.854;6.622;2023-05-16T02:17:11;19.48;;;3.22;;
14203;SDS011;7185;51.854;6.622;2023-05-16T02:19:43;14.45;;;3.58;;
14203;SDS011;7185;51.854;6.622;2023-05-16T02:22:14;15.05;;;2.80;;
14203;SDS011;7185;51.854;6.622;2023-05-16T02:24:46;18.88;;;2.83;;
14203;SDS011;7185;51.854;6.622;2023-05-16T02:27:17;13.32;;;2.58;;
14203;SDS011;7185;51.854;6.622;2023-05-16T02:29:50;18.60;;;3.45;;
14203;SDS011;7185;51.854;6.622;2023-05-16T02:32:24;26.17;;;4.20;;
14203;SDS011;7185;51.854;6.622;2023-05-16T02:34:56;23.85;;;3.08;;
14203;SDS011;7185;51.854;6.622;2023-05-16T02:37:27;16.05;;;2.90;;
14203;SDS011;7185;51.854;6.622;2023-05-16T02:39:59;20.50;;;3.38;;
14203;SDS011;7185;51.854;6.622;2023-05-16T02:42:30;16.40;;;3.40;;
14203;SDS011;7185;51.854;6.622;2023-05-16T02:45:04;27.23;;;3.80;;
14203;SDS011;7185;51.854;6.622;2023-05-16T02:47:36;19.13;;;2.95;;
14203;SDS011;7185;51.854;6.622;2023-05-16T02:50:08;15.45;;;2.53;;
14203;SDS011;7185;51.854;6.622;2023-05-16T02:52:40;16.45;;;3.65;;
14203;SDS011;7185;51.854;6.622;2023-05-16T02:55:11;20.70;;;3.08;;
14203;SDS011;7185;51.854;6.622;2023-05-16T02:57:43;17.02;;;3.72;;
14203;SDS011;7185;51.854;6.622;2023-05-16T03:00:16;17.98;;;3.47;;
14203;SDS011;7185;51.854;6.622;2023-05-16T03:02:50;13.38;;;2.78;;
14203;SDS011;7185;51.854;6.622;2023-05-16T03:05:24;16.23;;;2.90;;
14203;SDS011;7185;51.854;6.622;2023-05-16T03:07:55;15.15;;;2.50;;
14203;SDS011;7185;51.854;6.622;2023-05-16T03:10:27;16.05;;;3.25;;
14203;SDS011;7185;51.854;6.622;2023-05-16T03:12:58;17.00;;;3.08;;
14203;SDS011;7185;51.854;6.622;2023-05-16T03:15:31;15.60;;;3.42;;
14203;SDS011;7185;51.854;6.622;2023-05-16T03:18:03;9.07;;;2.75;;
14203;SDS011;7185;51.854;6.622;2023-05-16T03:20:36;14.02;;;2.53;;
14203;SDS011;7185;51.854;6.622;2023-05-16T03:23:07;18.95;;;2.67;;
14203;SDS011;7185;51.854;6.622;2023-05-16T03:25:39;13.27;;;2.60;;
14203;SDS011;7185;51.854;6.622;2023-05-16T03:28:12;14.38;;;3.03;;
14203;SDS011;7185;51.854;6.622;2023-05-16T03:30:45;12.60;;;2.42;;
14203;SDS011;7185;51.854;6.622;2023-05-16T03:33:17;11.98;;;2.63;;
14203;SDS011;7185;51.854;6.622;2023-05-16T03:35:49;19.20;;;3.38;;
14203;SDS011;7185;51.854;6.622;2023-05-16T03:38:21;11.45;;;2.60;;
14203;SDS011;7185;51.854;6.622;2023-05-16T03:40:52;19.55;;;3.33;;
14203;SDS011;7185;51.854;6.622;2023-05-16T03:43:24;15.60;;;3.20;;
14203;SDS011;7185;51.854;6.622;2023-05-16T03:45:57;16.13;;;3.00;;
14203;SDS011;7185;51.854;6.622;2023-05-16T03:48:31;15.82;;;2.40;;
14203;SDS011;7185;51.854;6.622;2023-05-16T03:51:03;14.80;;;2.30;;
14203;SDS011;7185;51.854;6.622;2023-05-16T03:53:35;10.77;;;2.40;;
14203;SDS011;7185;51.854;6.622;2023-05-16T03:56:07;12.73;;;3.42;;
14203;SDS011;7185;51.854;6.622;2023-05-16T03:58:39;13.27;;;2.42;;
14203;SDS011;7185;51.854;6.622;2023-05-16T04:01:12;12.57;;;3.33;;
14203;SDS011;7185;51.854;6.622;2023-05-16T04:03:43;18.30;;;3.58;;
14203;SDS011;7185;51.854;6.622;2023-05-16T04:06:15;23.92;;;3.00;;
14203;SDS011;7185;51.854;6.622;2023-05-16T04:08:47;9.88;;;2.50;;
14203;SDS011;7185;51.854;6.622;2023-05-16T04:11:19;11.30;;;3.45;;
14203;SDS011;7185;51.854;6.622;2023-05-16T04:13:51;11.57;;;2.78;;
14203;SDS011;7185;51.854;6.622;2023-05-16T04:16:24;19.17;;;2.97;;
14203;SDS011;7185;51.854;6.622;2023-05-16T04:18:56;15.48;;;2.80;;
14203;SDS011;7185;51.854;6.622;2023-05-16T04:21:28;12.75;;;2.70;;
14203;SDS011;7185;51.854;6.622;2023-05-16T04:24:00;21.00;;;3.25;;
14203;SDS011;7185;51.854;6.622;2023-05-16T04:26:31;16.40;;;2.70;;
14203;SDS011;7185;51.854;6.622;2023-05-16T04:29:03;13.60;;;2.50;;
14203;SDS011;7185;51.854;6.622;2023-05-16T04:31:38;15.00;;;3.10;;
14203;SDS011;7185;51.854;6.622;2023-05-16T04:34:10;13.07;;;2.90;;
14203;SDS011;7185;51.854;6.622;2023-05-16T04:36:42;13.05;;;3.15;;
14203;SDS011;7185;51.854;6.622;2023-05-16T04:39:14;12.98;;;2.65;;
14203;SDS011;7185;51.854;6.622;2023-05-16T04:41:46;14.63;;;3.20;;
14203;SDS011;7185;51.854;6.622;2023-05-16T04:44:17;12.40;;;3.00;;
14203;SDS011;7185;51.854;6.622;2023-05-16T04:46:56;17.58;;;2.63;;
14203;SDS011;7185;51.854;6.622;2023-05-16T04:49:30;15.73;;;2.80;;
14203;SDS011;7185;51.854;6.622;2023-05-16T04:52:02;15.98;;;3.40;;
14203;SDS011;7185;51.854;6.622;2023-05-16T04:54:34;18.58;;;3.90;;
14203;SDS011;7185;51.854;6.622;2023-05-16T04:57:05;16.05;;;3.00;;
14203;SDS011;7185;51.854;6.622;2023-05-16T04:59:39;11.75;;;3.05;;
14203;SDS011;7185;51.854;6.622;2023-05-16T05:02:12;16.10;;;2.67;;
14203;SDS011;7185;51.854;6.622;2023-05-16T05:04:44;16.25;;;2.47;;
14203;SDS011;7185;51.854;6.622;2023-05-16T05:07:15;15.90;;;2.70;;
14203;SDS011;7185;51.854;6.622;2023-05-16T05:09:47;13.65;;;2.58;;
14203;SDS011;7185;51.854;6.622;2023-05-16T05:12:20;19.52;;;2.88;;
14203;SDS011;7185;51.854;6.622;2023-05-16T05:14:52;19.50;;;3.92;;
14203;SDS011;7185;51.854;6.622;2023-05-16T05:17:25;10.38;;;2.70;;
14203;SDS011;7185;51.854;6.622;2023-05-16T05:19:57;15.65;;;3.17;;
14203;SDS011;7185;51.854;6.622;2023-05-16T05:22:28;14.43;;;2.58;;
14203;SDS011;7185;51.854;6.622;2023-05-16T05:25:00;13.80;;;3.05;;
14203;SDS011;7185;51.854;6.622;2023-05-16T05:27:35;16.85;;;2.97;;
14203;SDS011;7185;51.854;6.622;2023-05-16T05:30:07;13.02;;;2.60;;
14203;SDS011;7185;51.854;6.622;2023-05-16T05:32:41;11.30;;;2.40;;
14203;SDS011;7185;51.854;6.622;2023-05-16T05:35:13;13.30;;;2.97;;
14203;SDS011;7185;51.854;6.622;2023-05-16T05:37:45;15.60;;;3.10;;
14203;SDS011;7185;51.854;6.622;2023-05-16T05:40:19;13.48;;;2.88;;
14203;SDS011;7185;51.854;6.622;2023-05-16T05:42:54;9.27;;;2.63;;
14203;SDS011;7185;51.854;6.622;2023-05-16T05:45:30;21.33;;;3.10;;
14203;SDS011;7185;51.854;6.622;2023-05-16T05:48:24;17.88;;;3.42;;
14203;SDS011;7185;51.854;6.622;2023-05-16T05:51:06;14.27;;;3.25;;
14203;SDS011;7185;51.854;6.622;2023-05-16T05:53:43;15.18;;;2.97;;
14203;SDS011;7185;51.854;6.622;2023-05-16T05:56:24;11.13;;;2.88;;
14203;SDS011;7185;51.854;6.622;2023-05-16T05:59:00;11.75;;;2.50;;
14203;SDS011;7185;51.854;6.622;2023-05-16T06:01:36;12.07;;;2.20;;
14203;SDS011;7185;51.854;6.622;2023-05-16T06:04:16;8.18;;;2.90;;
14203;SDS011;7185;51.854;6.622;2023-05-16T06:06:56;16.67;;;3.22;;
14203;SDS011;7185;51.854;6.622;2023-05-16T06:09:27;11.50;;;2.22;;
14203;SDS011;7185;51.854;6.622;2023-05-16T06:11:59;12.80;;;2.15;;
14203;SDS011;7185;51.854;6.622;2023-05-16T06:14:33;14.23;;;2.83;;
14203;SDS011;7185;51.854;6.622;2023-05-16T06:17:05;13.90;;;3.20;;
14203;SDS011;7185;51.854;6.622;2023-05-16T06:19:42;10.20;;;2.25;;
14203;SDS011;7185;51.854;6.622;2023-05-16T06:22:14;11.30;;;2.42;;
14203;SDS011;7185;51.854;6.622;2023-05-16T06:24:45;13.75;;;2.75;;
14203;SDS011;7185;51.854;6.622;2023-05-16T06:27:17;13.65;;;2.80;;
14203;SDS011;7185;51.854;6.622;2023-05-16T06:29:49;12.20;;;3.00;;
14203;SDS011;7185;51.854;6.622;2023-05-16T06:32:23;10.27;;;2.63;;
14203;SDS011;7185;51.854;6.622;2023-05-16T06:34:56;11.63;;;2.30;;
14203;SDS011;7185;51.854;6.622;2023-05-16T06:37:28;10.48;;;2.40;;
14203;SDS011;7185;51.854;6.622;2023-05-16T06:40:00;12.40;;;2.50;;
14203;SDS011;7185;51.854;6.622;2023-05-16T06:42:32;14.60;;;2.50;;
14203;SDS011;7185;51.854;6.622;2023-05-16T06:45:07;15.77;;;2.40;;
14203;SDS011;7185;51.854;6.622;2023-05-16T06:47:40;12.02;;;1.95;;
14203;SDS011;7185;51.854;6.622;2023-05-16T06:50:16;10.30;;;2.35;;
14203;SDS011;7185;51.854;6.622;2023-05-16T06:55:26;11.25;;;2.05;;
14203;SDS011;7185;51.854;6.622;2023-05-16T06:58:02;14.70;;;1.90;;
14203;SDS011;7185;51.854;6.622;2023-05-16T07:00:34;14.63;;;2.13;;
14203;SDS011;7185;51.854;6.622;2023-05-16T07:03:08;11.57;;;2.20;;
14203;SDS011;7185;51.854;6.622;2023-05-16T07:05:47;15.07;;;2.53;;
14203;SDS011;7185;51.854;6.622;2023-05-16T07:08:23;9.98;;;2.42;;
14203;SDS011;7185;51.854;6.622;2023-05-16T07:10:55;13.95;;;2.25;;
14203;SDS011;7185;51.854;6.622;2023-05-16T07:13:30;18.23;;;2.70;;
14203;SDS011;7185;51.854;6.622;2023-05-16T07:16:01;12.73;;;2.45;;
14203;SDS011;7185;51.854;6.622;2023-05-16T07:18:33;9.88;;;1.90;;
14203;SDS011;7185;51.854;6.622;2023-05-16T07:21:07;11.15;;;2.03;;
14203;SDS011;7185;51.854;6.622;2023-05-16T07:23:42;9.95;;;2.67;;
14203;SDS011;7185;51.854;6.622;2023-05-16T07:26:14;14.18;;;2.28;;
14203;SDS011;7185;51.854;6.622;2023-05-16T07:28:53;6.30;;;1.60;;
14203;SDS011;7185;51.854;6.622;2023-05-16T07:31:25;7.15;;;1.88;;
14203;SDS011;7185;51.854;6.622;2023-05-16T07:33:57;8.60;;;1.77;;
14203;SDS011;7185;51.854;6.622;2023-05-16T07:36:37;6.32;;;1.67;;
14203;SDS011;7185;51.854;6.622;2023-05-16T07:39:12;7.75;;;1.60;;
14203;SDS011;7185;51.854;6.622;2023-05-16T07:41:44;10.02;;;1.77;;
14203;SDS011;7185;51.854;6.622;2023-05-16T07:44:18;8.68;;;1.85;;
14203;SDS011;7185;51.854;6.622;2023-05-16T07:46:50;7.43;;;2.00;;
14203;SDS011;7185;51.854;6.622;2023-05-16T07:49:22;10.68;;;1.67;;
14203;SDS011;7185;51.854;6.622;2023-05-16T07:51:55;10.63;;;2.10;;
14203;SDS011;7185;51.854;6.622;2023-05-16T07:54:27;8.32;;;1.88;;
14203;SDS011;7185;51.854;6.622;2023-05-16T07:57:00;10.30;;;2.00;;
14203;SDS011;7185;51.854;6.622;2023-05-16T07:59:36;12.63;;;2.05;;
14203;SDS011;7185;51.854;6.622;2023-05-16T08:02:08;9.57;;;1.90;;
14203;SDS011;7185;51.854;6.622;2023-05-16T08:04:40;8.90;;;2.40;;
14203;SDS011;7185;51.854;6.622;2023-05-16T08:07:13;7.82;;;1.60;;
14203;SDS011;7185;51.854;6.622;2023-05-16T08:09:48;10.68;;;2.70;;
14203;SDS011;7185;51.854;6.622;2023-05-16T08:12:20;5.95;;;1.50;;
14203;SDS011;7185;51.854;6.622;2023-05-16T08:14:52;6.03;;;1.73;;
14203;SDS011;7185;51.854;6.622;2023-05-16T08:17:23;7.80;;;2.17;;
14203;SDS011;7185;51.854;6.622;2023-05-16T08:19:57;9.98;;;2.38;;
14203;SDS011;7185;51.854;6.622;2023-05-16T08:22:33;9.55;;;1.63;;
14203;SDS011;7185;51.854;6.622;2023-05-16T08:25:05;8.18;;;1.48;;
14203;SDS011;7185;51.854;6.622;2023-05-16T08:27:38;4.88;;;1.40;;
14203;SDS011;7185;51.854;6.622;2023-05-16T08:30:10;8.90;;;1.95;;
14203;SDS011;7185;51.854;6.622;2023-05-16T08:32:42;9.13;;;1.95;;
14203;SDS011;7185;51.854;6.622;2023-05-16T08:35:14;7.25;;;1.30;;
14203;SDS011;7185;51.854;6.622;2023-05-16T08:37:49;5.97;;;1.45;;
14203;SDS011;7185;51.854;6.622;2023-05-16T08:40:25;4.50;;;0.93;;
14203;SDS011;7185;51.854;6.622;2023-05-16T08:42:57;6.25;;;1.60;;
14203;SDS011;7185;51.854;6.622;2023-05-16T08:45:31;10.02;;;1.30;;
14203;SDS011;7185;51.854;6.622;2023-05-16T08:48:06;9.90;;;1.48;;
14203;SDS011;7185;51.854;6.622;2023-05-16T08:50:41;7.00;;;1.80;;
14203;SDS011;7185;51.854;6.622;2023-05-16T08:53:21;7.63;;;1.13;;
14203;SDS011;7185;51.854;6.622;2023-05-16T08:55:59;5.03;;;1.73;;
14203;SDS011;7185;51.854;6.622;2023-05-16T08:58:32;8.10;;;1.40;;
14203;SDS011;7185;51.854;6.622;2023-05-16T09:01:07;3.08;;;1.10;;
14203;SDS011;7185;51.854;6.622;2023-05-16T09:03:50;5.28;;;0.98;;
14203;SDS011;7185;51.854;6.622;2023-05-16T09:06:28;6.72;;;1.67;;
14203;SDS011;7185;51.854;6.622;2023-05-16T09:09:07;4.10;;;0.93;;
14203;SDS011;7185;51.854;6.622;2023-05-16T09:11:41;4.50;;;1.27;;
14203;SDS011;7185;51.854;6.622;2023-05-16T09:14:13;3.90;;;1.23;;
14203;SDS011;7185;51.854;6.622;2023-05-16T09:16:48;2.75;;;1.05;;
14203;SDS011;7185;51.854;6.622;2023-05-16T09:19:48;4.78;;;1.27;;
14203;SDS011;7185;51.854;6.622;2023-05-16T09:22:27;5.68;;;1.23;;
14203;SDS011;7185;51.854;6.622;2023-05-16T09:25:11;3.92;;;1.10;;
14203;SDS011;7185;51.854;6.622;2023-05-16T09:27:51;4.05;;;1.27;;
14203;SDS011;7185;51.854;6.622;2023-05-16T09:32:59;3.35;;;1.00;;
14203;SDS011;7185;51.854;6.622;2023-05-16T09:35:30;7.28;;;1.58;;
14203;SDS011;7185;51.854;6.622;2023-05-16T09:38:02;8.48;;;1.40;;
14203;SDS011;7185;51.854;6.622;2023-05-16T09:40:39;2.17;;;1.00;;
14203;SDS011;7185;51.854;6.622;2023-05-16T09:43:15;5.38;;;1.33;;
14203;SDS011;7185;51.854;6.622;2023-05-16T09:45:58;7.60;;;1.38;;
14203;SDS011;7185;51.854;6.622;2023-05-16T09:48:33;4.85;;;1.30;;
14203;SDS011;7185;51.854;6.622;2023-05-16T09:51:07;6.72;;;1.17;;
14203;SDS011;7185;51.854;6.622;2023-05-16T09:53:42;6.28;;;1.52;;
14203;SDS011;7185;51.854;6.622;2023-05-16T09:56:16;5.68;;;0.93;;
14203;SDS011;7185;51.854;6.622;2023-05-16T09:58:47;5.82;;;1.30;;
14203;SDS011;7185;51.854;6.622;2023-05-16T10:01:25;4.88;;;1.65;;
14203;SDS011;7185;51.854;6.622;2023-05-16T10:03:57;4.82;;;1.27;;
14203;SDS011;7185;51.854;6.622;2023-05-16T10:06:28;5.22;;;1.10;;
14203;SDS011;7185;51.854;6.622;2023-05-16T10:09:00;6.05;;;1.05;;
14203;SDS011;7185;51.854;6.622;2023-05-16T10:11:33;5.32;;;1.00;;
14203;SDS011;7185;51.854;6.622;2023-05-16T10:14:05;7.00;;;1.10;;
14203;SDS011;7185;51.854;6.622;2023-05-16T10:16:40;5.93;;;1.33;;
14203;SDS011;7185;51.854;6.622;2023-05-16T10:19:16;6.07;;;1.70;;
14203;SDS011;7185;51.854;6.622;2023-05-16T10:21:52;4.65;;;1.10;;
14203;SDS011;7185;51.854;6.622;2023-05-16T10:24:30;15.90;;;1.40;;
14203;SDS011;7185;51.854;6.622;2023-05-16T10:27:11;6.15;;;0.98;;
14203;SDS011;7185;51.854;6.622;2023-05-16T10:29:43;4.75;;;0.90;;
14203;SDS011;7185;51.854;6.622;2023-05-16T10:32:15;2.05;;;1.02;;
14203;SDS011;7185;51.854;6.622;2023-05-16T10:34:47;2.90;;;1.00;;
14203;SDS011;7185;51.854;6.622;2023-05-16T10:37:19;3.83;;;1.00;;
14203;SDS011;7185;51.854;6.622;2023-05-16T10:39:50;6.68;;;0.88;;
14203;SDS011;7185;51.854;6.622;2023-05-16T10:42:24;2.60;;;0.90;;
14203;SDS011;7185;51.854;6.622;2023-05-16T10:45:09;6.03;;;1.10;;
14203;SDS011;7185;51.854;6.622;2023-05-16T10:47:51;5.32;;;1.10;;
14203;SDS011;7185;51.854;6.622;2023-05-16T10:50:35;5.50;;;1.40;;
14203;SDS011;7185;51.854;6.622;2023-05-16T10:53:16;6.30;;;1.63;;
14203;SDS011;7185;51.854;6.622;2023-05-16T10:55:50;5.00;;;1.05;;
14203;SDS011;7185;51.854;6.622;2023-05-16T10:58:41;5.72;;;1.23;;
14203;SDS011;7185;51.854;6.622;2023-05-16T11:01:13;6.57;;;1.42;;
14203;SDS011;7185;51.854;6.622;2023-05-16T11:04:03;6.28;;;0.90;;
14203;SDS011;7185;51.854;6.622;2023-05-16T11:06:44;4.53;;;1.02;;
14203;SDS011;7185;51.854;6.622;2023-05-16T11:09:18;6.25;;;1.20;;
14203;SDS011;7185;51.854;6.622;2023-05-16T11:11:55;3.50;;;1.10;;
14203;SDS011;7185;51.854;6.622;2023-05-16T11:18:38;9.43;;;1.63;;
14203;SDS011;7185;51.854;6.622;2023-05-16T11:21:20;5.45;;;1.73;;
14203;SDS011;7185;51.854;6.622;2023-05-16T11:24:28;4.63;;;0.98;;
14203;SDS011;7185;51.854;6.622;2023-05-16T11:27:15;3.97;;;1.00;;
14203;SDS011;7185;51.854;6.622;2023-05-16T11:30:15;2.75;;;0.90;;
14203;SDS011;7185;51.854;6.622;2023-05-16T11:32:49;5.47;;;1.00;;
14203;SDS011;7185;51.854;6.622;2023-05-16T11:35:23;6.60;;;1.40;;
14203;SDS011;7185;51.854;6.622;2023-05-16T11:37:57;6.85;;;1.17;;
14203;SDS011;7185;51.854;6.622;2023-05-16T11:40:31;9.60;;;1.23;;
14203;SDS011;7185;51.854;6.622;2023-05-16T11:43:03;4.65;;;1.23;;
14203;SDS011;7185;51.854;6.622;2023-05-16T11:45:35;4.38;;;1.13;;
14203;SDS011;7185;51.854;6.622;2023-05-16T11:48:07;4.95;;;1.17;;
14203;SDS011;7185;51.854;6.622;2023-05-16T11:50:41;2.72;;;1.00;;
14203;SDS011;7185;51.854;6.622;2023-05-16T11:53:13;4.65;;;1.20;;
14203;SDS011;7185;51.854;6.622;2023-05-16T11:55:46;5.07;;;1.05;;
14203;SDS011;7185;51.854;6.622;2023-05-16T11:58:21;3.83;;;1.00;;
14203;SDS011;7185;51.854;6.622;2023-05-16T12:00:53;3.38;;;1.10;;
14203;SDS011;7185;51.854;6.622;2023-05-16T12:03:36;5.03;;;0.90;;
14203;SDS011;7185;51.854;6.622;2023-05-16T12:06:12;6.45;;;1.10;;
14203;SDS011;7185;51.854;6.622;2023-05-16T12:08:49;4.47;;;1.10;;
14203;SDS011;7185;51.854;6.622;2023-05-16T12:11:29;7.38;;;1.17;;
14203;SDS011;7185;51.854;6.622;2023-05-16T12:14:07;4.47;;;1.08;;
14203;SDS011;7185;51.854;6.622;2023-05-16T12:16:46;6.03;;;1.48;;
14203;SDS011;7185;51.854;6.622;2023-05-16T12:19:22;3.95;;;1.15;;
14203;SDS011;7185;51.854;6.622;2023-05-16T12:21:55;4.45;;;1.02;;
14203;SDS011;7185;51.854;6.622;2023-05-16T12:24:31;5.88;;;1.33;;
14203;SDS011;7185;51.854;6.622;2023-05-16T12:27:27;2.95;;;1.10;;
14203;SDS011;7185;51.854;6.622;2023-05-16T12:30:03;3.78;;;1.30;;
14203;SDS011;7185;51.854;6.622;2023-05-16T12:32:39;5.90;;;1.45;;
14203;SDS011;7185;51.854;6.622;2023-05-16T12:35:11;7.07;;;1.17;;
14203;SDS011;7185;51.854;6.622;2023-05-16T12:37:44;6.32;;;1.10;;
14203;SDS011;7185;51.854;6.622;2023-05-16T12:40:16;4.50;;;1.10;;
14203;SDS011;7185;51.854;6.622;2023-05-16T12:42:56;7.35;;;1.10;;
14203;SDS011;7185;51.854;6.622;2023-05-16T12:45:29;3.38;;;1.17;;
14203;SDS011;7185;51.854;6.622;2023-05-16T12:48:04;4.55;;;1.40;;
14203;SDS011;7185;51.854;6.622;2023-05-16T12:50:37;5.97;;;1.40;;
14203;SDS011;7185;51.854;6.622;2023-05-16T12:53:13;6.57;;;1.30;;
14203;SDS011;7185;51.854;6.622;2023-05-16T12:55:46;4.97;;;1.35;;
14203;SDS011;7185;51.854;6.622;2023-05-16T12:58:18;5.95;;;1.30;;
14203;SDS011;7185;51.854;6.622;2023-05-16T13:00:50;6.93;;;1.30;;
14203;SDS011;7185;51.854;6.622;2023-05-16T13:03:21;5.90;;;1.70;;
14203;SDS011;7185;51.854;6.622;2023-05-16T13:05:53;4.75;;;1.40;;
14203;SDS011;7185;51.854;6.622;2023-05-16T13:08:26;6.40;;;1.70;;
14203;SDS011;7185;51.854;6.622;2023-05-16T13:10:58;6.15;;;2.08;;
14203;SDS011;7185;51.854;6.622;2023-05-16T13:13:32;6.30;;;1.55;;
14203;SDS011;7185;51.854;6.622;2023-05-16T13:16:04;4.57;;;1.42;;
14203;SDS011;7185;51.854;6.622;2023-05-16T13:18:37;6.97;;;1.48;;
14203;SDS011;7185;51.854;6.622;2023-05-16T13:24:03;4.90;;;1.42;;
14203;SDS011;7185;51.854;6.622;2023-05-16T13:26:35;4.78;;;1.70;;
14203;SDS011;7185;51.854;6.622;2023-05-16T13:29:07;4.43;;;1.40;;
14203;SDS011;7185;51.854;6.622;2023-05-16T13:31:40;7.10;;;1.40;;
14203;SDS011;7185;51.854;6.622;2023-05-16T13:37:09;6.10;;;2.33;;
14203;SDS011;7185;51.854;6.622;2023-05-16T13:39:42;5.35;;;1.30;;
14203;SDS011;7185;51.854;6.622;2023-05-16T13:42:13;6.53;;;1.63;;
14203;SDS011;7185;51.854;6.622;2023-05-16T13:44:45;6.13;;;1.48;;
14203;SDS011;7185;51.854;6.622;2023-05-16T13:47:18;5.97;;;1.48;;
14203;SDS011;7185;51.854;6.622;2023-05-16T13:49:49;5.53;;;1.52;;
14203;SDS011;7185;51.854;6.622;2023-05-16T13:52:21;6.50;;;2.03;;
14203;SDS011;7185;51.854;6.622;2023-05-16T13:54:54;9.48;;;1.70;;
14203;SDS011;7185;51.854;6.622;2023-05-16T13:57:26;7.65;;;1.55;;
14203;SDS011;7185;51.854;6.622;2023-05-16T13:59:57;6.38;;;1.50;;
14203;SDS011;7185;51.854;6.622;2023-05-16T14:02:29;7.28;;;2.10;;
14203;SDS011;7185;51.854;6.622;2023-05-16T14:05:01;8.93;;;1.92;;
14203;SDS011;7185;51.854;6.622;2023-05-16T14:07:33;5.45;;;1.33;;
14203;SDS011;7185;51.854;6.622;2023-05-16T14:10:08;5.57;;;1.60;;
14203;SDS011;7185;51.854;6.622;2023-05-16T14:12:55;5.57;;;1.50;;
14203;SDS011;7185;51.854;6.622;2023-05-16T14:15:37;5.47;;;1.50;;
14203;SDS011;7185;51.854;6.622;2023-05-16T14:18:13;9.13;;;2.47;;
14203;SDS011;7185;51.854;6.622;2023-05-16T14:20:45;7.03;;;1.95;;
14203;SDS011;7185;51.854;6.622;2023-05-16T14:23:16;7.97;;;1.75;;
14203;SDS011;7185;51.854;6.622;2023-05-16T14:25:55;7.35;;;1.42;;
14203;SDS011;7185;51.854;6.622;2023-05-16T14:29:09;7.90;;;1.50;;
14203;SDS011;7185;51.854;6.622;2023-05-16T14:31:56;6.50;;;1.42;;
14203;SDS011;7185;51.854;6.622;2023-05-16T14:35:00;6.97;;;1.98;;
14203;SDS011;7185;51.854;6.622;2023-05-16T14:40:36;5.25;;;1.63;;
14203;SDS011;7185;51.854;6.622;2023-05-16T14:43:15;10.40;;;1.90;;
14203;SDS011;7185;51.854;6.622;2023-05-16T14:45:50;5.95;;;1.42;;
14203;SDS011;7185;51.854;6.622;2023-05-16T14:49:24;6.70;;;1.52;;
14203;SDS011;7185;51.854;6.622;2023-05-16T14:51:24;6.47;;;1.75;;
14203;SDS011;7185;51.854;6.622;2023-05-16T14:53:56;6.82;;;1.67;;
14203;SDS011;7185;51.854;6.622;2023-05-16T14:56:28;6.85;;;2.13;;
14203;SDS011;7185;51.854;6.622;2023-05-16T14:59:02;5.72;;;1.40;;
14203;SDS011;7185;51.854;6.622;2023-05-16T15:01:33;5.55;;;1.63;;
14203;SDS011;7185;51.854;6.622;2023-05-16T15:04:05;5.82;;;1.70;;
14203;SDS011;7185;51.854;6.622;2023-05-16T15:06:37;8.13;;;1.83;;
14203;SDS011;7185;51.854;6.622;2023-05-16T15:09:08;7.00;;;1.90;;
14203;SDS011;7185;51.854;6.622;2023-05-16T15:11:40;6.88;;;1.65;;
14203;SDS011;7185;51.854;6.622;2023-05-16T15:14:13;8.98;;;1.90;;
14203;SDS011;7185;51.854;6.622;2023-05-16T15:16:44;5.97;;;2.15;;
14203;SDS011;7185;51.854;6.622;2023-05-16T15:19:17;4.93;;;1.75;;
14203;SDS011;7185;51.854;6.622;2023-05-16T15:21:49;10.65;;;1.90;;
14203;SDS011;7185;51.854;6.622;2023-05-16T15:24:21;6.22;;;1.95;;
14203;SDS011;7185;51.854;6.622;2023-05-16T15:26:54;7.97;;;2.05;;
14203;SDS011;7185;51.854;6.622;2023-05-16T15:29:28;8.52;;;1.83;;
14203;SDS011;7185;51.854;6.622;2023-05-16T15:32:02;5.53;;;2.00;;
14203;SDS011;7185;51.854;6.622;2023-05-16T15:34:34;7.57;;;1.90;;
14203;SDS011;7185;51.854;6.622;2023-05-16T15:37:06;7.82;;;2.03;;
14203;SDS011;7185;51.854;6.622;2023-05-16T15:39:38;8.10;;;1.98;;
14203;SDS011;7185;51.854;6.622;2023-05-16T15:42:09;8.07;;;1.80;;
14203;SDS011;7185;51.854;6.622;2023-05-16T15:44:46;5.63;;;1.90;;
14203;SDS011;7185;51.854;6.622;2023-05-16T15:47:17;5.13;;;2.15;;
14203;SDS011;7185;51.854;6.622;2023-05-16T15:49:49;5.05;;;1.85;;
14203;SDS011;7185;51.854;6.622;2023-05-16T15:52:20;9.70;;;2.30;;
14203;SDS011;7185;51.854;6.622;2023-05-16T15:54:52;8.88;;;2.30;;
14203;SDS011;7185;51.854;6.622;2023-05-16T15:57:29;10.55;;;2.35;;